createdAt,value
2018-11-27T15:30:23.874Z,57.64
2018-11-27T15:35:27.133Z,57.16
2018-11-27T15:40:32.148Z,57.46
2018-11-27T15:45:35.794Z,57.35
2018-11-27T15:50:39.524Z,57.48
2018-11-27T15:55:44.432Z,57.54
2018-11-27T16:00:48.057Z,58.17
2018-11-27T16:05:53.500Z,57.87
2018-11-27T16:11:25.367Z,57.54
2018-11-27T16:27:53.308Z,58.71
2018-11-27T16:33:00.176Z,59.91
2018-11-27T16:38:05.190Z,58.34
2018-11-27T16:43:09.883Z,57.34
2018-11-27T16:48:13.659Z,57.95
2018-11-27T16:53:19.475Z,58.25
2018-11-27T16:58:25.312Z,57.79
2018-11-27T17:03:36.401Z,57.28
2018-11-27T17:08:40.209Z,58.81
2018-11-27T17:13:46.364Z,58.92
2018-11-27T17:18:49.929Z,59.22
2018-11-27T17:23:53.438Z,58.86
2018-11-27T17:28:57.096Z,59.20
2018-11-27T18:02:16.302Z,58.32
2018-11-27T18:07:21.346Z,58.23
2018-11-27T18:12:25.279Z,58.14
2018-11-27T18:17:29.811Z,57.31
2018-11-27T18:28:10.932Z,57.61
2018-11-27T18:33:14.384Z,58.22
2018-11-27T18:38:17.710Z,59.87
2018-11-27T18:43:21.024Z,59.55
2018-11-27T18:48:24.359Z,59.93
2018-11-27T18:53:27.866Z,59.14
2018-11-27T18:58:32.398Z,59.10
2018-11-27T19:03:36.571Z,58.29
2018-11-27T19:08:41.359Z,58.86
2018-11-27T19:13:45.165Z,59.60
2018-11-27T19:46:56.166Z,57.58
2018-11-27T19:51:59.815Z,57.55
2018-11-27T20:08:16.451Z,58.46
2018-11-27T20:13:22.123Z,58.27
2018-11-27T20:18:34.454Z,57.64
2018-11-27T20:35:21.852Z,56.83
2018-11-27T20:40:44.670Z,56.85
2018-11-27T20:51:18.846Z,57.68
2018-11-27T20:56:29.004Z,57.10
2018-11-27T21:01:33.346Z,56.21
2018-11-27T21:06:37.168Z,56.87
2018-11-27T21:11:41.256Z,55.99
2018-11-27T21:16:45.052Z,55.76
2018-11-27T21:21:49.296Z,56.29
2018-11-27T21:26:53.843Z,56.31
2018-11-27T21:31:57.751Z,55.58
2018-11-27T21:37:01.504Z,55.64
2018-11-27T21:42:06.194Z,56.23
2018-11-27T21:47:09.941Z,56.58
2018-11-27T21:52:13.652Z,56.31
2018-11-27T21:57:17.360Z,55.59
2018-11-27T22:02:21.119Z,55.46
2018-11-27T22:07:26.356Z,55.00
2018-11-27T22:12:31.138Z,55.88
2018-11-27T22:17:35.098Z,55.40
2018-11-27T22:22:39.023Z,55.04
2018-11-27T22:27:42.987Z,55.99
2018-11-27T22:32:48.989Z,54.72
2018-11-27T22:37:52.723Z,55.18
2018-11-27T22:42:56.742Z,54.90
2018-11-27T22:48:00.504Z,54.86
2018-11-27T22:53:04.191Z,55.16
2018-11-27T22:58:08.472Z,55.12
2018-11-27T23:03:12.317Z,54.73
2018-11-27T23:08:16.347Z,54.94
2018-11-27T23:13:20.076Z,55.49
2018-11-27T23:18:23.894Z,56.06
2018-11-27T23:23:27.976Z,55.62
2018-11-27T23:28:31.750Z,55.11
2018-11-27T23:33:35.702Z,54.85
2018-11-27T23:38:39.501Z,55.13
2018-11-27T23:43:43.278Z,54.87
2018-11-27T23:48:48.029Z,55.59
2018-11-27T23:53:51.784Z,55.24
2018-11-27T23:58:55.852Z,55.03
